Time;durP1;ratioP1;P1;durP2;ratioP2;P2;SDS_P1;SDS_P2;PMS_P1;PMS_P2;Temp;Humidity;BMP_temperature;BMP_pressure;BME280_temperature;BME280_humidity;BME280_pressure;Samples;Min_cycle;Max_cycle;Signal;HPM_P1;HPM_P2
2021/01/08 00:01:40;;;;;;;5.38;4.60;;;5.50;99.90;;;;;;5082727;28;21006;-80
2021/01/08 00:04:06;;;;;;;4.63;4.22;;;6.20;99.90;;;;;;5087989;28;20208;-80
2021/01/08 00:06:32;;;;;;;4.93;4.43;;;5.70;99.90;;;;;;5091073;28;20201;-80
2021/01/08 00:08:59;;;;;;;5.05;4.65;;;5.60;99.90;;;;;;5077675;28;20634;-81
2021/01/08 00:11:26;;;;;;;4.70;4.30;;;5.60;99.90;;;;;;5071876;28;20217;-79
2021/01/08 00:13:52;;;;;;;4.90;4.50;;;5.50;99.90;;;;;;5075544;28;20215;-81
2021/01/08 00:16:19;;;;;;;5.63;5.13;;;5.50;99.90;;;;;;5090243;28;20250;-79
2021/01/08 00:18:46;;;;;;;6.60;5.22;;;5.60;99.90;;;;;;5091195;28;20193;-81
2021/01/08 00:21:13;;;;;;;4.35;3.95;;;5.60;99.90;;;;;;5090841;28;20255;-81
2021/01/08 00:23:39;;;;;;;5.30;4.80;;;5.60;99.90;;;;;;5071631;28;20240;-80
2021/01/08 00:26:05;;;;;;;4.50;4.10;;;5.60;99.90;;;;;;5084591;28;20262;-80
2021/01/08 00:28:32;;;;;;;5.32;4.80;;;5.60;99.90;;;;;;5091506;28;20216;-80
2021/01/08 00:30:59;;;;;;;4.50;4.10;;;5.60;99.90;;;;;;5088012;28;20197;-80
2021/01/08 00:33:27;;;;;;;4.80;4.40;;;5.60;99.90;;;;;;5072497;28;20193;-80
2021/01/08 00:35:53;;;;;;;4.30;3.90;;;5.60;99.90;;;;;;5071304;28;20535;-80
2021/01/08 00:38:19;;;;;;;4.65;4.22;;;5.60;99.90;;;;;;5088786;28;20229;-80
2021/01/08 00:40:45;;;;;;;5.00;4.60;;;5.60;99.90;;;;;;5070989;28;20205;-80
2021/01/08 00:43:11;;;;;;;4.80;4.40;;;5.60;99.90;;;;;;5072365;28;20221;-81
2021/01/08 00:45:39;;;;;;;4.75;4.28;;;5.60;99.90;;;;;;5075820;28;20211;-81
2021/01/08 00:48:06;;;;;;;4.50;4.07;;;5.60;99.90;;;;;;5078322;28;20225;-81
2021/01/08 00:50:32;;;;;;;5.10;4.65;;;5.60;99.90;;;;;;5073129;28;20728;-80
2021/01/08 00:52:58;;;;;;;3.78;3.47;;;5.60;99.90;;;;;;5071044;28;20190;-81
2021/01/08 00:55:24;;;;;;;5.30;4.25;;;5.60;99.90;;;;;;5078184;28;20193;-81
2021/01/08 00:57:51;;;;;;;4.47;4.07;;;5.50;99.90;;;;;;5074906;28;20212;-80
2021/01/08 01:00:17;;;;;;;3.90;3.60;;;5.50;99.90;;;;;;5071271;28;20202;-81
2021/01/08 01:02:44;;;;;;;3.90;3.60;;;5.50;99.90;;;;;;5075425;28;20220;-81
2021/01/08 01:05:11;;;;;;;3.78;3.38;;;5.50;99.90;;;;;;5069523;28;20209;-81
2021/01/08 01:07:37;;;;;;;4.25;3.67;;;5.50;99.90;;;;;;5071219;28;20526;-81
2021/01/08 01:10:05;;;;;;;4.45;4.05;;;5.50;99.90;;;;;;5070348;28;20202;-75
2021/01/08 01:12:31;;;;;;;4.32;3.85;;;5.50;99.90;;;;;;5078983;28;20197;-84
2021/01/08 01:14:58;;;;;;;4.32;3.92;;;5.50;99.90;;;;;;5082424;28;20198;-78
2021/01/08 01:17:24;;;;;;;3.67;3.28;;;5.60;99.90;;;;;;5090548;28;20205;-78
2021/01/08 01:19:52;;;;;;;3.65;3.35;;;5.50;99.90;;;;;;5080601;28;20208;-78
2021/01/08 01:22:18;;;;;;;3.53;3.22;;;5.50;99.90;;;;;;5075515;28;20214;-78
2021/01/08 01:24:45;;;;;;;4.03;3.70;;;5.50;99.90;;;;;;5089468;28;20251;-78
2021/01/08 01:27:11;;;;;;;3.60;3.30;;;5.50;99.90;;;;;;5090608;28;20233;-79
2021/01/08 01:29:37;;;;;;;3.65;3.35;;;5.50;99.90;;;;;;5078315;28;20244;-80
2021/01/08 01:32:04;;;;;;;3.50;3.20;;;5.50;99.90;;;;;;5090497;28;20194;-79
2021/01/08 01:34:30;;;;;;;3.85;3.45;;;5.50;99.90;;;;;;5093279;28;20208;-78
2021/01/08 01:36:57;;;;;;;3.75;3.33;;;5.50;99.90;;;;;;5084043;28;20240;-78
2021/01/08 01:39:23;;;;;;;3.33;3.03;;;5.50;99.90;;;;;;5087009;28;20201;-78
2021/01/08 01:41:50;;;;;;;3.90;3.58;;;5.50;99.90;;;;;;5074171;28;20206;-78
2021/01/08 01:44:16;;;;;;;3.85;3.55;;;5.50;99.90;;;;;;5074066;28;20226;-79
2021/01/08 01:46:42;;;;;;;3.65;3.30;;;5.50;99.90;;;;;;5079078;28;20201;-78
2021/01/08 01:49:08;;;;;;;3.50;3.10;;;5.50;99.90;;;;;;5079376;28;20198;-78
2021/01/08 01:51:34;;;;;;;3.92;3.63;;;5.50;99.90;;;;;;5077746;28;20195;-78
2021/01/08 01:54:02;;;;;;;3.55;3.33;;;5.50;99.90;;;;;;5073911;28;20194;-78
2021/01/08 01:56:28;;;;;;;3.05;2.75;;;5.50;99.90;;;;;;5080559;28;20550;-78
2021/01/08 01:58:54;;;;;;;3.85;3.38;;;5.50;99.90;;;;;;5093806;28;20198;-78
2021/01/08 02:01:20;;;;;;;4.57;4.10;;;5.50;99.90;;;;;;5090338;28;20205;-78
2021/01/08 02:03:50;;;;;;;4.30;3.90;;;5.50;99.90;;;;;;5073587;28;20218;-78
2021/01/08 02:06:19;;;;;;;4.25;3.50;;;5.50;99.90;;;;;;5073496;28;20202;-78
2021/01/08 02:08:49;;;;;;;3.33;3.05;;;5.50;99.90;;;;;;5076233;28;20201;-78
2021/01/08 02:11:23;;;;;;;3.33;3.03;;;5.50;99.90;;;;;;5073801;28;20186;-78
2021/01/08 02:13:55;;;;;;;4.15;3.30;;;5.50;99.90;;;;;;5074613;28;20186;-78
2021/01/08 02:16:23;;;;;;;3.58;3.28;;;5.50;99.90;;;;;;5082118;28;20201;-78
2021/01/08 02:18:53;;;;;;;3.70;3.28;;;5.50;99.90;;;;;;5093461;28;20212;-79
2021/01/08 02:21:24;;;;;;;3.10;2.90;;;5.50;99.90;;;;;;5090743;28;20193;-79
2021/01/08 02:23:58;;;;;;;3.80;3.50;;;5.50;99.90;;;;;;5089021;28;20232;-80
2021/01/08 02:26:26;;;;;;;3.05;2.75;;;5.50;99.90;;;;;;5093752;28;20251;-80
2021/01/08 02:28:53;;;;;;;3.25;2.97;;;5.50;99.90;;;;;;5092009;28;20201;-79
2021/01/08 02:31:20;;;;;;;2.95;2.75;;;5.50;99.90;;;;;;5077938;28;20255;-79
2021/01/08 02:33:46;;;;;;;3.53;3.05;;;5.50;99.90;;;;;;5073344;28;20194;-80
2021/01/08 02:36:13;;;;;;;3.50;3.20;;;5.50;99.90;;;;;;5073095;28;20201;-79
2021/01/08 02:38:40;;;;;;;3.90;3.55;;;5.50;99.90;;;;;;5089297;28;20201;-77
2021/01/08 02:41:08;;;;;;;3.60;3.30;;;5.50;99.90;;;;;;5088186;28;20194;-77
2021/01/08 02:43:35;;;;;;;3.10;2.90;;;5.50;99.90;;;;;;5090067;28;20217;-77
2021/01/08 02:46:02;;;;;;;3.72;3.40;;;5.50;99.90;;;;;;5072573;28;20236;-77
2021/01/08 02:48:29;;;;;;;3.00;2.78;;;5.60;99.90;;;;;;5093037;28;20216;-76
2021/01/08 02:50:55;;;;;;;3.85;3.05;;;5.50;99.90;;;;;;5077859;28;20245;-76
2021/01/08 02:53:25;;;;;;;4.20;2.78;;;5.60;99.90;;;;;;5072633;28;20198;-78
2021/01/08 02:55:57;;;;;;;3.28;2.97;;;5.60;99.90;;;;;;5076016;28;20208;-78
2021/01/08 02:58:24;;;;;;;3.03;2.72;;;5.60;99.90;;;;;;5081134;28;20189;-77
2021/01/08 03:00:53;;;;;;;2.90;2.67;;;5.60;99.90;;;;;;5072706;28;20202;-76
2021/01/08 03:03:21;;;;;;;3.60;3.30;;;5.50;99.90;;;;;;5072528;28;20214;-76
2021/01/08 03:05:48;;;;;;;2.97;2.45;;;5.50;99.90;;;;;;5072424;28;20649;-76
2021/01/08 03:08:15;;;;;;;3.30;3.00;;;5.60;99.90;;;;;;5092154;28;20216;-76
2021/01/08 03:10:41;;;;;;;3.35;3.05;;;5.60;99.90;;;;;;5082014;28;20198;-77
2021/01/08 03:13:10;;;;;;;3.30;3.00;;;5.50;99.90;;;;;;5075787;28;20202;-76
2021/01/08 03:15:36;;;;;;;3.03;2.75;;;5.50;99.90;;;;;;5092434;28;20558;-76
2021/01/08 03:18:03;;;;;;;2.38;2.17;;;5.50;99.90;;;;;;5092721;28;20262;-76
2021/01/08 03:20:29;;;;;;;2.80;2.50;;;5.50;99.90;;;;;;5080840;28;20205;-76
2021/01/08 03:22:56;;;;;;;2.92;2.60;;;5.50;99.90;;;;;;5072018;28;20658;-76
2021/01/08 03:25:22;;;;;;;2.80;2.60;;;5.50;99.90;;;;;;5072299;28;20248;-77
2021/01/08 03:27:48;;;;;;;2.97;2.67;;;5.50;99.90;;;;;;5072035;28;20623;-77
2021/01/08 03:30:15;;;;;;;2.60;2.40;;;5.50;99.90;;;;;;5075699;28;20202;-76
2021/01/08 03:32:41;;;;;;;3.00;2.70;;;5.50;99.90;;;;;;5085512;28;20238;-79
2021/01/08 03:35:09;;;;;;;3.00;2.80;;;5.50;99.90;;;;;;5078084;28;20205;-78
2021/01/08 03:37:37;;;;;;;3.60;3.30;;;5.50;99.90;;;;;;5072100;28;20240;-77
2021/01/08 03:40:05;;;;;;;3.30;2.60;;;5.60;99.90;;;;;;5072156;28;20198;-77
2021/01/08 03:42:31;;;;;;;2.60;2.40;;;5.50;99.90;;;;;;5070531;28;20709;-75
2021/01/08 03:44:57;;;;;;;3.03;2.72;;;5.60;99.90;;;;;;5074489;28;20205;-78
2021/01/08 03:47:24;;;;;;;2.78;2.50;;;5.60;99.90;;;;;;5071837;28;20198;-77
2021/01/08 03:49:50;;;;;;;3.13;2.92;;;5.50;99.90;;;;;;5072033;28;20216;-77
2021/01/08 03:52:17;;;;;;;3.28;2.97;;;5.60;99.90;;;;;;5071936;28;20197;-77
2021/01/08 03:54:43;;;;;;;3.15;2.85;;;5.50;99.90;;;;;;5071232;28;20194;-77
2021/01/08 03:57:09;;;;;;;2.50;2.30;;;5.50;99.90;;;;;;5087935;28;20202;-78
2021/01/08 03:59:35;;;;;;;2.50;2.20;;;5.50;99.90;;;;;;5071729;28;20205;-77
2021/01/08 04:02:02;;;;;;;2.53;2.05;;;5.50;99.90;;;;;;5075361;28;20206;-78
2021/01/08 04:04:28;;;;;;;2.08;1.88;;;5.50;99.90;;;;;;5071643;28;20362;-78
2021/01/08 04:06:54;;;;;;;3.10;2.63;;;5.50;99.90;;;;;;5072215;28;20690;-80
2021/01/08 04:09:21;;;;;;;2.53;2.33;;;5.50;99.90;;;;;;5082679;28;20206;-79
2021/01/08 04:11:48;;;;;;;2.75;2.55;;;5.50;99.90;;;;;;5082083;28;20198;-77
2021/01/08 04:14:14;;;;;;;3.58;2.83;;;5.50;99.90;;;;;;5071173;28;20198;-79
2021/01/08 04:16:41;;;;;;;2.22;2.03;;;5.50;99.90;;;;;;5082045;28;20205;-79
2021/01/08 04:19:08;;;;;;;2.80;2.60;;;5.50;99.90;;;;;;5071630;28;20194;-78
2021/01/08 04:21:34;;;;;;;3.67;2.58;;;5.50;99.90;;;;;;5071226;28;20210;-79
2021/01/08 04:24:01;;;;;;;2.70;2.13;;;5.50;99.90;;;;;;5070895;28;20222;-79
2021/01/08 04:26:28;;;;;;;2.65;2.45;;;5.60;99.90;;;;;;5071374;28;20198;-78
2021/01/08 04:28:54;;;;;;;2.85;2.55;;;5.50;99.90;;;;;;5070012;28;20220;-78
2021/01/08 04:31:20;;;;;;;2.85;2.42;;;5.50;99.90;;;;;;5070265;28;20194;-78
2021/01/08 04:33:47;;;;;;;3.00;2.80;;;5.50;99.90;;;;;;5081061;28;20264;-77
2021/01/08 04:36:13;;;;;;;2.08;1.85;;;5.50;99.90;;;;;;5070511;28;20202;-79
2021/01/08 04:38:40;;;;;;;3.08;2.40;;;5.50;99.90;;;;;;5070323;28;20223;-80
2021/01/08 04:41:07;;;;;;;2.30;2.10;;;5.50;99.90;;;;;;5071357;28;20206;-79
2021/01/08 04:43:35;;;;;;;2.15;2.00;;;5.50;99.90;;;;;;5076403;28;20217;-79
2021/01/08 04:46:06;;;;;;;2.42;2.22;;;5.50;99.90;;;;;;5091164;28;20205;-79
2021/01/08 04:48:34;;;;;;;2.33;2.08;;;5.50;99.90;;;;;;5089535;28;20177;-79
2021/01/08 04:51:03;;;;;;;2.50;2.30;;;5.50;99.90;;;;;;5072292;28;20209;-79
2021/01/08 04:53:30;;;;;;;2.63;2.42;;;5.50;99.90;;;;;;5070844;28;20201;-79
2021/01/08 04:56:00;;;;;;;2.83;2.63;;;5.50;99.90;;;;;;5070935;28;20194;-79
2021/01/08 04:58:30;;;;;;;2.30;2.10;;;5.50;99.90;;;;;;5070916;28;20527;-77
2021/01/08 05:00:58;;;;;;;2.50;2.30;;;5.50;99.90;;;;;;5076473;28;20197;-78
2021/01/08 05:03:24;;;;;;;3.10;2.80;;;5.50;99.90;;;;;;5070897;28;20217;-78
2021/01/08 05:05:50;;;;;;;3.03;2.03;;;5.50;99.90;;;;;;5076724;28;20207;-80
2021/01/08 05:08:17;;;;;;;2.75;2.42;;;5.50;99.90;;;;;;5075083;28;20218;-79
2021/01/08 05:10:44;;;;;;;3.00;2.70;;;5.50;99.90;;;;;;5081877;28;20185;-79
2021/01/08 05:13:11;;;;;;;2.78;2.53;;;5.50;99.90;;;;;;5084826;28;20213;-79
2021/01/08 05:15:37;;;;;;;3.10;2.78;;;5.50;99.90;;;;;;5078684;28;20194;-78
2021/01/08 05:18:05;;;;;;;2.28;2.00;;;5.50;99.90;;;;;;5093350;28;20706;-77
2021/01/08 05:20:31;;;;;;;2.97;2.47;;;5.50;99.90;;;;;;5090792;28;20251;-78
2021/01/08 05:22:58;;;;;;;3.08;2.70;;;5.60;99.90;;;;;;5079438;28;20217;-78
2021/01/08 05:25:25;;;;;;;2.83;2.63;;;5.50;99.90;;;;;;5074892;28;20205;-77
2021/01/08 05:27:51;;;;;;;2.95;2.63;;;5.50;99.90;;;;;;5074450;28;20190;-77
2021/01/08 05:30:19;;;;;;;2.95;2.65;;;5.60;99.90;;;;;;5077284;28;20189;-77
2021/01/08 05:32:46;;;;;;;2.78;2.17;;;5.50;99.90;;;;;;5084806;28;20527;-77
2021/01/08 05:35:16;;;;;;;2.97;2.75;;;5.50;99.90;;;;;;5074584;28;20206;-78
2021/01/08 05:37:46;;;;;;;3.28;2.60;;;5.50;99.90;;;;;;5081262;28;20221;-78
2021/01/08 05:40:13;;;;;;;3.42;2.40;;;5.50;99.90;;;;;;5082533;28;20205;-77
2021/01/08 05:43:03;;;;;;;6.03;3.25;;;5.50;99.90;;;;;;5094254;28;20222;-77
2021/01/08 05:45:31;;;;;;;2.50;2.30;;;5.60;99.90;;;;;;5085431;28;20252;-77
2021/01/08 05:47:58;;;;;;;2.92;2.45;;;5.50;99.90;;;;;;5078449;28;20202;-78
2021/01/08 05:50:28;;;;;;;3.78;2.97;;;5.50;99.90;;;;;;5084734;28;20204;-77
2021/01/08 05:52:58;;;;;;;3.38;3.08;;;5.50;99.90;;;;;;5074059;28;20236;-77
2021/01/08 05:55:26;;;;;;;2.90;2.40;;;5.50;99.90;;;;;;5077722;28;20198;-77
2021/01/08 05:57:53;;;;;;;2.60;2.40;;;5.50;99.90;;;;;;5073696;28;20202;-77
2021/01/08 06:00:20;;;;;;;3.33;2.60;;;5.60;99.90;;;;;;5073830;28;20197;-80
2021/01/08 06:02:49;;;;;;;1.92;1.73;;;5.60;99.90;;;;;;5073928;28;20218;-78
2021/01/08 06:05:15;;;;;;;2.65;2.45;;;5.50;99.90;;;;;;5074062;28;20202;-78
2021/01/08 06:07:49;;;;;;;3.25;2.95;;;5.50;99.90;;;;;;5073630;28;20202;-77
2021/01/08 06:10:19;;;;;;;3.35;2.95;;;5.50;99.90;;;;;;5074631;28;20201;-77
2021/01/08 06:12:47;;;;;;;3.83;3.53;;;5.60;99.90;;;;;;5078417;28;20193;-77
2021/01/08 06:15:16;;;;;;;3.20;2.90;;;5.60;99.90;;;;;;5091499;28;20641;-79
2021/01/08 06:17:47;;;;;;;3.35;2.70;;;5.50;99.90;;;;;;5073664;28;20205;-78
2021/01/08 06:20:14;;;;;;;2.35;2.15;;;5.50;99.90;;;;;;5073721;28;20718;-77
2021/01/08 06:22:42;;;;;;;3.72;3.35;;;5.50;99.90;;;;;;5073117;28;20607;-77
2021/01/08 06:25:10;;;;;;;2.75;2.47;;;5.50;99.90;;;;;;5082832;28;20194;-77
2021/01/08 06:27:37;;;;;;;3.45;2.88;;;5.60;99.90;;;;;;5077269;28;20538;-78
2021/01/08 06:30:06;;;;;;;3.42;3.10;;;5.60;99.90;;;;;;5073162;28;20194;-77
2021/01/08 06:32:33;;;;;;;2.95;2.72;;;5.50;99.90;;;;;;5073292;28;20190;-79
2021/01/08 06:35:05;;;;;;;3.05;2.85;;;5.60;99.90;;;;;;5072948;28;20263;-78
2021/01/08 06:37:38;;;;;;;3.95;3.53;;;5.60;99.90;;;;;;5073138;28;20371;-79
2021/01/08 06:40:07;;;;;;;3.78;3.08;;;5.50;99.90;;;;;;5091297;28;20204;-78
2021/01/08 06:42:43;;;;;;;2.97;2.67;;;5.50;99.90;;;;;;5088740;28;20200;-79
2021/01/08 06:45:13;;;;;;;3.10;2.80;;;5.50;99.90;;;;;;5072694;28;20194;-79
2021/01/08 06:47:44;;;;;;;5.10;2.67;;;5.40;99.90;;;;;;5072826;28;20205;-79
2021/01/08 06:50:16;;;;;;;3.03;2.72;;;5.40;99.90;;;;;;5073214;28;20186;-79
2021/01/08 06:52:45;;;;;;;3.30;2.95;;;5.50;99.90;;;;;;5072888;28;20209;-79
2021/01/08 06:55:16;;;;;;;3.35;3.05;;;5.50;99.90;;;;;;5072526;28;20253;-78
2021/01/08 06:57:52;;;;;;;3.03;2.78;;;5.50;99.90;;;;;;5072893;28;20182;-78
2021/01/08 07:00:21;;;;;;;3.33;3.03;;;5.50;99.90;;;;;;5074455;28;20631;-78
2021/01/08 07:02:54;;;;;;;2.67;2.47;;;5.50;99.90;;;;;;5072800;28;20750;-78
2021/01/08 07:05:21;;;;;;;2.70;2.40;;;5.50;99.90;;;;;;5082065;28;20786;-77
2021/01/08 07:07:48;;;;;;;4.15;3.40;;;5.50;99.90;;;;;;5092916;28;20533;-77
2021/01/08 07:10:20;;;;;;;3.22;2.83;;;5.50;99.90;;;;;;5086921;28;20202;-78
2021/01/08 07:12:51;;;;;;;2.70;2.50;;;5.50;99.90;;;;;;5071673;28;20201;-77
2021/01/08 07:15:19;;;;;;;3.08;2.80;;;5.50;99.90;;;;;;5077604;28;20202;-78
2021/01/08 07:17:50;;;;;;;3.03;2.83;;;5.50;99.90;;;;;;5076936;28;20194;-78
2021/01/08 07:20:19;;;;;;;2.72;2.50;;;5.40;99.90;;;;;;5072566;28;20573;-78
2021/01/08 07:22:51;;;;;;;3.22;2.92;;;5.50;99.90;;;;;;5072059;28;20240;-78
2021/01/08 07:25:22;;;;;;;3.20;2.90;;;5.40;99.90;;;;;;5072420;28;20182;-78
2021/01/08 07:27:50;;;;;;;3.22;2.60;;;5.40;99.90;;;;;;5071760;28;20532;-78
2021/01/08 07:30:17;;;;;;;2.95;2.60;;;5.80;99.90;;;;;;5076147;28;20638;-78
2021/01/08 07:32:45;;;;;;;3.00;2.80;;;5.40;99.90;;;;;;5080539;28;20197;-78
2021/01/08 07:35:19;;;;;;;2.90;2.70;;;5.40;99.90;;;;;;5072158;28;20202;-78
2021/01/08 07:38:00;;;;;;;2.88;2.65;;;5.40;99.90;;;;;;5071496;28;20374;-80
2021/01/08 07:40:28;;;;;;;3.00;2.75;;;5.40;99.90;;;;;;5087883;28;20197;-79
2021/01/08 07:42:59;;;;;;;3.75;3.13;;;5.40;99.90;;;;;;5089322;28;20244;-80
2021/01/08 07:45:47;;;;;;;4.13;3.78;;;5.40;99.90;;;;;;5072007;28;20343;-80
2021/01/08 07:48:17;;;;;;;3.22;2.92;;;5.40;99.90;;;;;;5084380;28;20197;-77
2021/01/08 07:50:58;;;;;;;2.65;2.45;;;5.40;99.90;;;;;;5081925;28;20202;-78
2021/01/08 07:53:43;;;;;;;3.65;2.85;;;5.40;99.90;;;;;;5088749;28;20181;-77
2021/01/08 07:56:12;;;;;;;3.35;2.92;;;5.40;99.90;;;;;;5087640;28;20198;-77
2021/01/08 07:58:39;;;;;;;2.58;2.38;;;5.40;99.90;;;;;;5071406;28;20194;-77
2021/01/08 08:01:07;;;;;;;3.13;2.83;;;5.40;99.90;;;;;;5073919;28;20208;-77
2021/01/08 08:03:33;;;;;;;3.42;2.80;;;5.40;99.90;;;;;;5087334;28;20230;-77
2021/01/08 08:06:00;;;;;;;2.90;2.60;;;5.60;99.90;;;;;;5071651;28;20266;-77
2021/01/08 08:08:27;;;;;;;3.30;2.65;;;5.80;99.90;;;;;;5071387;28;20229;-76
2021/01/08 08:10:53;;;;;;;3.42;3.10;;;5.40;99.90;;;;;;5071768;28;20198;-76
2021/01/08 08:13:29;;;;;;;2.45;2.25;;;5.40;99.90;;;;;;5071515;28;20204;-77
2021/01/08 08:15:55;;;;;;;3.95;3.22;;;5.40;99.90;;;;;;5072663;28;20697;-77
2021/01/08 08:18:21;;;;;;;2.83;2.35;;;5.40;99.90;;;;;;5079490;28;20656;-77
2021/01/08 08:20:47;;;;;;;3.20;2.95;;;5.30;99.90;;;;;;5091495;28;20193;-77
2021/01/08 08:23:15;;;;;;;2.50;2.30;;;5.40;99.90;;;;;;5091770;28;20227;-77
2021/01/08 08:25:41;;;;;;;2.80;2.60;;;5.40;99.90;;;;;;5074654;28;20538;-78
2021/01/08 08:28:07;;;;;;;3.20;2.90;;;5.40;99.90;;;;;;5071712;28;20194;-77
2021/01/08 08:30:35;;;;;;;3.30;2.85;;;5.40;99.90;;;;;;5071005;28;20202;-76
2021/01/08 08:33:04;;;;;;;3.67;2.67;;;6.40;99.90;;;;;;5090974;28;20197;-77
2021/01/08 08:35:32;;;;;;;3.47;2.60;;;5.40;99.90;;;;;;5076058;28;20202;-77
2021/01/08 08:37:59;;;;;;;2.13;1.92;;;5.40;99.90;;;;;;5071321;28;20697;-77
2021/01/08 08:40:27;;;;;;;2.63;2.40;;;5.40;99.90;;;;;;5074362;28;20205;-76
2021/01/08 08:42:54;;;;;;;2.63;2.42;;;5.40;99.90;;;;;;5075520;28;20282;-77
2021/01/08 08:45:23;;;;;;;2.80;2.55;;;5.40;99.90;;;;;;5075721;28;20207;-76
2021/01/08 08:47:51;;;;;;;3.60;3.05;;;5.40;99.90;;;;;;5075480;28;20274;-76
2021/01/08 08:50:18;;;;;;;2.50;2.20;;;5.40;99.90;;;;;;5075531;28;20197;-76
2021/01/08 08:52:45;;;;;;;2.22;2.03;;;5.40;99.90;;;;;;5075193;28;20194;-76
2021/01/08 08:55:25;;;;;;;2.42;1.90;;;5.40;99.90;;;;;;5075453;28;20588;-76
2021/01/08 08:57:59;;;;;;;2.53;2.30;;;5.50;99.90;;;;;;5075406;28;20202;-76
2021/01/08 09:00:26;;;;;;;3.30;2.13;;;5.40;99.90;;;;;;5079996;28;20283;-77
2021/01/08 09:02:53;;;;;;;2.70;2.50;;;6.40;99.90;;;;;;5075619;28;20662;-76
2021/01/08 09:05:19;;;;;;;2.10;1.90;;;5.40;99.90;;;;;;5076118;28;20206;-76
2021/01/08 09:07:50;;;;;;;2.35;2.15;;;5.50;99.90;;;;;;5076271;28;20212;-76
2021/01/08 09:10:22;;;;;;;2.70;2.33;;;5.40;99.90;;;;;;5093074;28;20541;-76
2021/01/08 09:12:53;;;;;;;2.45;2.17;;;5.40;99.90;;;;;;5095143;28;20177;-76
2021/01/08 09:15:26;;;;;;;5.95;2.75;;;5.40;99.90;;;;;;5094480;28;20262;-76
2021/01/08 09:18:05;;;;;;;2.40;2.10;;;5.40;99.90;;;;;;5093639;28;20202;-76
2021/01/08 09:20:33;;;;;;;3.28;2.65;;;5.40;99.90;;;;;;5087822;28;20194;-79
2021/01/08 09:23:01;;;;;;;4.75;2.97;;;5.40;99.90;;;;;;5082749;28;20231;-80
2021/01/08 09:25:27;;;;;;;3.30;2.97;;;5.40;99.90;;;;;;5090342;28;20193;-76
2021/01/08 09:27:54;;;;;;;2.70;2.10;;;5.40;99.90;;;;;;5078928;28;20195;-77
2021/01/08 09:30:21;;;;;;;2.83;2.63;;;5.80;99.90;;;;;;5078446;28;20194;-79
2021/01/08 09:32:47;;;;;;;2.42;2.10;;;5.50;99.90;;;;;;5078935;28;20194;-76
2021/01/08 09:35:14;;;;;;;5.97;4.40;;;5.40;99.90;;;;;;5074778;28;20194;-76
2021/01/08 09:37:48;;;;;;;6.13;4.93;;;5.30;99.90;;;;;;5073973;28;20234;-76
2021/01/08 09:40:16;;;;;;;4.95;4.30;;;5.20;99.90;;;;;;5074289;28;20194;-78
2021/01/08 09:42:43;;;;;;;6.25;5.65;;;5.20;99.90;;;;;;5074023;28;20205;-79
2021/01/08 09:45:23;;;;;;;5.28;4.78;;;5.20;99.90;;;;;;5079082;28;20217;-79
2021/01/08 09:47:51;;;;;;;3.90;3.50;;;5.40;99.90;;;;;;5094595;28;20189;-80
2021/01/08 09:50:40;;;;;;;4.50;4.05;;;5.40;99.90;;;;;;5083320;28;20198;-81
2021/01/08 09:53:10;;;;;;;4.28;3.47;;;5.30;99.90;;;;;;5070833;28;20232;-82
2021/01/08 09:55:37;;;;;;;4.57;4.10;;;5.40;99.90;;;;;;5074332;28;20499;-81
2021/01/08 09:58:04;;;;;;;4.43;3.67;;;5.50;99.90;;;;;;5073864;28;20202;-81
2021/01/08 10:00:32;;;;;;;3.45;3.10;;;5.60;99.90;;;;;;5077268;28;20202;-80
2021/01/08 10:02:58;;;;;;;4.57;3.92;;;5.40;99.90;;;;;;5092516;28;20255;-81
2021/01/08 10:05:27;;;;;;;4.38;3.75;;;5.40;99.90;;;;;;5089511;28;20204;-82
2021/01/08 10:07:55;;;;;;;5.03;3.50;;;5.50;99.90;;;;;;5081961;28;20194;-82
2021/01/08 10:10:39;;;;;;;3.83;3.45;;;5.50;99.90;;;;;;5090912;28;20220;-79
2021/01/08 10:13:13;;;;;;;4.47;3.50;;;6.20;99.90;;;;;;5087231;28;20788;-77
2021/01/08 10:15:41;;;;;;;3.22;2.95;;;5.50;99.90;;;;;;5090187;28;20636;-81
2021/01/08 10:18:09;;;;;;;3.67;3.38;;;5.60;99.90;;;;;;5092166;28;20205;-76
2021/01/08 10:20:42;;;;;;;4.05;3.22;;;5.50;99.90;;;;;;5090817;28;20194;-77
2021/01/08 10:23:14;;;;;;;3.45;3.15;;;5.50;99.90;;;;;;5084779;28;20232;-78
2021/01/08 10:25:41;;;;;;;3.70;3.40;;;5.50;99.90;;;;;;5090817;28;20640;-75
2021/01/08 10:28:12;;;;;;;3.40;2.70;;;5.50;99.90;;;;;;5073448;28;20198;-78
2021/01/08 10:30:39;;;;;;;3.92;3.20;;;5.60;99.90;;;;;;5075759;28;20197;-74
2021/01/08 10:33:06;;;;;;;3.38;2.88;;;5.60;99.90;;;;;;5086390;28;20646;-78
2021/01/08 10:35:33;;;;;;;3.67;3.30;;;5.60;99.90;;;;;;5073792;28;20228;-77
2021/01/08 10:38:00;;;;;;;4.00;3.25;;;5.50;99.90;;;;;;5075726;28;20232;-77
2021/01/08 10:40:27;;;;;;;4.30;2.97;;;5.70;99.90;;;;;;5093341;28;20262;-79
2021/01/08 10:42:54;;;;;;;4.00;3.45;;;5.70;99.90;;;;;;5079973;28;20209;-79
2021/01/08 10:45:21;;;;;;;3.00;2.72;;;5.50;99.90;;;;;;5079803;28;20201;-79
2021/01/08 10:47:47;;;;;;;2.83;2.53;;;5.60;99.90;;;;;;5088925;28;20201;-79
2021/01/08 10:50:14;;;;;;;4.45;3.28;;;5.60;99.90;;;;;;5080211;28;20755;-75
2021/01/08 10:52:40;;;;;;;7.10;4.80;;;5.60;99.90;;;;;;5091737;28;20201;-79
2021/01/08 10:55:10;;;;;;;6.93;5.45;;;5.50;99.90;;;;;;5079378;28;20194;-79
2021/01/08 10:57:37;;;;;;;5.80;4.32;;;5.50;99.90;;;;;;5073093;28;20222;-79
2021/01/08 11:00:07;;;;;;;4.78;4.10;;;5.50;99.90;;;;;;5071133;28;20255;-79
2021/01/08 11:02:33;;;;;;;4.47;4.07;;;5.60;99.90;;;;;;5073414;28;20209;-79
2021/01/08 11:04:59;;;;;;;4.97;3.63;;;5.50;99.90;;;;;;5079386;28;20271;-79
2021/01/08 11:07:26;;;;;;;5.53;4.47;;;5.50;99.90;;;;;;5072771;28;20201;-79
2021/01/08 11:09:54;;;;;;;4.53;4.10;;;5.60;99.90;;;;;;5072531;28;20680;-79
2021/01/08 11:12:20;;;;;;;5.82;4.75;;;6.10;99.90;;;;;;5076810;28;20280;-79
2021/01/08 11:14:48;;;;;;;4.45;4.05;;;5.70;99.90;;;;;;5090635;28;20190;-79
2021/01/08 11:17:14;;;;;;;4.90;4.10;;;5.70;99.90;;;;;;5084328;28;20545;-79
2021/01/08 11:19:40;;;;;;;4.50;4.10;;;5.70;99.90;;;;;;5090590;28;20701;-79
2021/01/08 11:22:07;;;;;;;4.38;3.75;;;5.70;99.90;;;;;;5071904;28;20206;-80
2021/01/08 11:24:34;;;;;;;3.38;3.08;;;5.60;99.90;;;;;;5072240;28;20317;-79
2021/01/08 11:27:00;;;;;;;4.53;4.05;;;5.60;99.90;;;;;;5081665;28;20189;-79
2021/01/08 11:29:26;;;;;;;4.32;3.50;;;5.70;99.90;;;;;;5088187;28;20216;-79
2021/01/08 11:31:53;;;;;;;3.67;3.35;;;5.60;99.90;;;;;;5092301;28;20208;-78
2021/01/08 11:34:19;;;;;;;3.75;3.35;;;5.40;99.90;;;;;;5087760;28;20197;-78
2021/01/08 11:36:46;;;;;;;4.53;3.53;;;5.60;99.90;;;;;;5087147;28;20229;-78
2021/01/08 11:39:13;;;;;;;3.10;2.80;;;5.60;99.90;;;;;;5088049;28;20187;-79
2021/01/08 11:41:40;;;;;;;3.80;3.38;;;5.60;99.90;;;;;;5071960;28;20198;-79
2021/01/08 11:44:06;;;;;;;3.38;2.95;;;6.10;99.90;;;;;;5071464;28;20214;-79
2021/01/08 11:46:33;;;;;;;3.50;3.17;;;5.70;99.90;;;;;;5084824;28;20193;-78
2021/01/08 11:49:00;;;;;;;2.95;2.25;;;5.70;99.90;;;;;;5088044;28;20208;-79
2021/01/08 11:51:26;;;;;;;4.47;3.63;;;5.70;99.90;;;;;;5082611;28;20681;-79
2021/01/08 11:53:52;;;;;;;2.65;2.45;;;5.70;99.90;;;;;;5071604;28;20262;-79
2021/01/08 11:56:26;;;;;;;3.20;2.90;;;5.80;99.90;;;;;;5074825;28;20205;-78
2021/01/08 11:58:53;;;;;;;2.78;2.50;;;6.80;99.90;;;;;;5090850;28;20201;-79
2021/01/08 12:01:23;;;;;;;3.28;2.70;;;5.70;99.90;;;;;;5087610;28;20199;-78
2021/01/08 12:03:49;;;;;;;2.70;2.50;;;5.70;99.90;;;;;;5071441;28;20528;-79
2021/01/08 12:06:17;;;;;;;2.38;2.17;;;5.80;99.90;;;;;;5081485;28;20200;-81
2021/01/08 12:08:44;;;;;;;2.92;2.63;;;5.80;99.90;;;;;;5071667;28;20263;-81
2021/01/08 12:11:14;;;;;;;2.88;2.60;;;5.90;99.90;;;;;;5071743;28;20617;-80
2021/01/08 12:13:42;;;;;;;3.05;2.33;;;5.90;99.90;;;;;;5071599;28;20224;-79
2021/01/08 12:16:08;;;;;;;2.50;2.30;;;5.80;99.90;;;;;;5086003;28;20198;-76
2021/01/08 12:18:34;;;;;;;3.55;2.60;;;5.80;99.90;;;;;;5081024;28;20205;-76
2021/01/08 12:21:00;;;;;;;3.42;2.53;;;5.80;99.90;;;;;;5076687;28;20671;-77
2021/01/08 12:23:27;;;;;;;4.40;3.55;;;5.80;99.90;;;;;;5075184;28;20221;-77
2021/01/08 12:25:54;;;;;;;3.10;2.70;;;5.80;99.90;;;;;;5083248;28;20205;-77
2021/01/08 12:28:20;;;;;;;4.00;2.67;;;5.90;99.90;;;;;;5090327;28;20201;-77
2021/01/08 12:30:46;;;;;;;4.10;3.58;;;5.90;99.90;;;;;;5091195;28;20198;-77
2021/01/08 12:33:12;;;;;;;2.20;1.95;;;5.90;99.90;;;;;;5091319;28;20212;-77
2021/01/08 12:35:39;;;;;;;3.00;2.70;;;5.90;99.90;;;;;;5084339;28;20202;-76
2021/01/08 12:38:05;;;;;;;2.92;2.60;;;5.90;99.90;;;;;;5089846;28;20229;-77
2021/01/08 12:40:32;;;;;;;3.17;2.88;;;5.90;99.90;;;;;;5087518;28;20190;-77
2021/01/08 12:42:58;;;;;;;2.92;2.65;;;5.90;99.90;;;;;;5073726;28;20237;-76
2021/01/08 12:45:24;;;;;;;2.88;2.67;;;5.90;99.90;;;;;;5080216;28;20625;-76
2021/01/08 12:47:51;;;;;;;4.35;3.80;;;5.80;99.90;;;;;;5085596;28;20535;-77
2021/01/08 12:50:20;;;;;;;3.40;3.10;;;5.80;99.90;;;;;;5087701;28;20198;-77
2021/01/08 12:52:46;;;;;;;3.70;2.63;;;5.80;99.90;;;;;;5080536;28;20664;-77
2021/01/08 12:55:13;;;;;;;2.72;2.50;;;5.90;99.90;;;;;;5081242;28;20201;-77
2021/01/08 12:57:41;;;;;;;2.90;2.53;;;5.90;99.90;;;;;;5077720;28;20202;-76
2021/01/08 13:00:08;;;;;;;3.10;2.80;;;5.90;99.90;;;;;;5071257;28;20206;-77
2021/01/08 13:02:34;;;;;;;2.38;2.08;;;5.90;99.90;;;;;;5084175;28;20194;-77